createdAt,value
2023-01-13T00:01:53.753Z,1.55
2023-01-13T00:04:28.512Z,1.10
2023-01-13T00:06:56.919Z,2.08
2023-01-13T00:09:26.270Z,2.20
2023-01-13T00:12:12.069Z,0.82
2023-01-13T00:14:54.371Z,0.32
2023-01-13T00:17:25.533Z,1.27
2023-01-13T00:19:55.187Z,0.77
2023-01-13T00:22:27.570Z,4.45
2023-01-13T00:25:13.143Z,2.65
2023-01-13T00:27:51.717Z,1.77
2023-01-13T00:30:31.593Z,2.97
2023-01-13T00:33:21.945Z,2.50
2023-01-13T00:36:00.405Z,1.40
2023-01-13T00:38:47.689Z,1.85
2023-01-13T00:41:17.870Z,0.40
2023-01-13T00:43:45.671Z,2.63
2023-01-13T00:46:17.590Z,4.70
2023-01-13T00:48:46.922Z,2.83
2023-01-13T00:51:17.032Z,3.55
2023-01-13T00:53:47.128Z,3.50
2023-01-13T00:56:34.092Z,1.38
2023-01-13T00:59:08.023Z,2.42
2023-01-13T01:01:39.597Z,3.35
2023-01-13T01:04:08.711Z,1.30
2023-01-13T01:06:39.224Z,4.40
2023-01-13T01:09:08.224Z,4.60
2023-01-13T01:11:37.855Z,5.60
2023-01-13T01:14:06.113Z,2.40
2023-01-13T01:16:44.284Z,0.95
2023-01-13T01:19:27.598Z,5.50
2023-01-13T01:22:08.960Z,7.03
2023-01-13T01:24:50.766Z,6.95
2023-01-13T01:27:19.201Z,2.80
2023-01-13T01:29:54.280Z,7.38
2023-01-13T01:32:44.511Z,5.90
2023-01-13T01:35:20.118Z,11.93
2023-01-13T01:38:05.235Z,9.98
2023-01-13T01:40:42.480Z,19.42
2023-01-13T01:43:41.871Z,16.05
2023-01-13T01:46:14.902Z,4.20
2023-01-13T01:48:43.974Z,7.05
2023-01-13T01:51:14.199Z,7.22
2023-01-13T01:53:42.921Z,5.93
2023-01-13T01:56:13.632Z,9.63
2023-01-13T01:58:57.463Z,6.15
2023-01-13T02:01:33.801Z,12.32
2023-01-13T02:04:30.463Z,3.50
2023-01-13T02:07:23.264Z,6.10
2023-01-13T02:09:58.659Z,2.97
2023-01-13T02:12:30.561Z,6.67
2023-01-13T02:15:01.663Z,3.70
2023-01-13T02:17:57.781Z,8.45
2023-01-13T02:20:32.213Z,9.40
2023-01-13T02:25:30.029Z,6.97
2023-01-13T02:28:15.055Z,13.15
2023-01-13T02:31:07.060Z,6.25
2023-01-13T02:33:52.267Z,5.07
2023-01-13T02:36:35.047Z,6.70
2023-01-13T02:39:18.188Z,8.15
2023-01-13T02:42:11.614Z,6.55
2023-01-13T02:44:48.014Z,7.43
2023-01-13T02:47:21.296Z,3.72
2023-01-13T02:50:29.131Z,6.60
2023-01-13T02:53:03.286Z,7.20
2023-01-13T02:55:44.049Z,8.00
2023-01-13T02:58:17.159Z,2.40
2023-01-13T03:00:49.277Z,3.40
2023-01-13T03:06:10.275Z,8.77
2023-01-13T03:08:53.908Z,4.57
2023-01-13T03:11:27.139Z,3.33
2023-01-13T03:14:06.419Z,4.30
2023-01-13T03:16:45.576Z,5.43
2023-01-13T03:19:17.364Z,3.85
2023-01-13T03:21:57.863Z,9.82
2023-01-13T03:24:27.488Z,6.68
2023-01-13T03:27:11.621Z,6.90
2023-01-13T03:29:55.482Z,5.10
2023-01-13T03:32:33.381Z,6.35
2023-01-13T03:35:05.485Z,3.15
2023-01-13T03:37:37.216Z,3.78
2023-01-13T03:40:25.795Z,14.60
2023-01-13T03:43:15.283Z,3.92
2023-01-13T03:45:59.021Z,6.57
2023-01-13T03:48:33.844Z,7.18
2023-01-13T03:51:06.348Z,6.32
2023-01-13T03:53:44.516Z,14.35
2023-01-13T03:56:22.321Z,4.85
2023-01-13T03:58:58.698Z,8.23
2023-01-13T04:01:34.408Z,5.93
2023-01-13T04:04:07.485Z,8.50
2023-01-13T04:06:59.293Z,10.52
2023-01-13T04:09:42.740Z,8.50
2023-01-13T04:12:22.935Z,6.25
2023-01-13T04:15:00.347Z,8.52
2023-01-13T04:17:46.603Z,7.85
2023-01-13T04:20:21.946Z,6.38
2023-01-13T04:23:11.037Z,7.15
2023-01-13T04:25:48.496Z,6.90
2023-01-13T04:28:27.421Z,5.47
2023-01-13T04:31:04.088Z,7.35
2023-01-13T04:33:47.637Z,4.90
2023-01-13T04:36:25.165Z,2.78
2023-01-13T04:38:55.252Z,7.22
2023-01-13T04:41:28.281Z,8.88
2023-01-13T04:43:57.596Z,8.85
2023-01-13T04:46:28.561Z,9.27
2023-01-13T04:49:13.293Z,11.38
2023-01-13T04:51:43.987Z,4.95
2023-01-13T04:54:16.206Z,12.20
2023-01-13T04:56:47.387Z,5.18
2023-01-13T04:59:17.413Z,6.38
2023-01-13T05:01:55.898Z,13.40
2023-01-13T05:04:43.515Z,8.85
2023-01-13T05:07:20.803Z,10.40
2023-01-13T05:10:06.576Z,10.68
2023-01-13T05:13:01.401Z,13.43
2023-01-13T05:15:58.181Z,9.13
2023-01-13T05:18:32.112Z,10.65
2023-01-13T05:21:00.713Z,11.98
2023-01-13T05:23:53.599Z,9.15
2023-01-13T05:26:25.592Z,14.82
2023-01-13T05:29:03.369Z,9.25
2023-01-13T05:31:46.233Z,16.48
2023-01-13T05:34:25.043Z,2.58
2023-01-13T05:37:00.932Z,8.85
2023-01-13T05:39:53.981Z,9.52
2023-01-13T05:42:46.325Z,6.35
2023-01-13T05:45:15.163Z,5.55
2023-01-13T05:48:02.041Z,14.88
2023-01-13T05:50:33.299Z,6.47
2023-01-13T05:53:14.079Z,12.32
2023-01-13T05:55:54.576Z,11.23
2023-01-13T05:58:39.114Z,10.75
2023-01-13T06:01:09.501Z,12.93
2023-01-13T06:03:54.971Z,6.38
2023-01-13T06:06:23.347Z,11.98
2023-01-13T06:09:05.101Z,12.60
2023-01-13T06:11:43.827Z,9.20
2023-01-13T06:14:14.976Z,16.45
2023-01-13T06:16:45.406Z,13.52
2023-01-13T06:19:13.945Z,11.65
2023-01-13T06:21:45.228Z,4.10
2023-01-13T06:24:14.380Z,7.05
2023-01-13T06:26:46.235Z,6.05
2023-01-13T06:29:17.643Z,10.27
2023-01-13T06:31:46.550Z,8.25
2023-01-13T06:34:19.215Z,12.85
2023-01-13T06:36:58.956Z,9.20
2023-01-13T06:39:38.559Z,15.07
2023-01-13T06:42:33.916Z,5.75
2023-01-13T06:45:13.562Z,14.07
2023-01-13T06:48:00.659Z,15.60
2023-01-13T06:50:31.312Z,5.68
2023-01-13T06:53:07.308Z,8.75
2023-01-13T06:55:46.670Z,5.30
2023-01-13T06:58:15.149Z,11.95
2023-01-13T07:01:00.617Z,15.80
2023-01-13T07:06:11.035Z,9.38
2023-01-13T07:08:39.752Z,14.70
2023-01-13T07:11:08.883Z,12.48
2023-01-13T07:13:56.300Z,16.23
2023-01-13T07:16:28.006Z,9.15
2023-01-13T07:18:56.697Z,8.30
2023-01-13T07:21:27.482Z,9.02
2023-01-13T07:23:56.813Z,6.53
2023-01-13T07:26:27.525Z,6.45
2023-01-13T07:29:17.577Z,8.52
2023-01-13T07:31:53.300Z,5.25
2023-01-13T07:34:32.783Z,14.45
2023-01-13T07:37:11.882Z,17.38
2023-01-13T07:39:55.028Z,6.87
2023-01-13T07:42:52.718Z,3.20
2023-01-13T07:45:32.824Z,7.93
2023-01-13T07:48:14.120Z,9.55
2023-01-13T07:50:53.342Z,14.80
2023-01-13T07:53:22.385Z,6.22
2023-01-13T07:55:56.232Z,9.00
2023-01-13T07:58:37.655Z,7.72
2023-01-13T08:01:12.098Z,9.13
2023-01-13T08:03:59.996Z,11.60
2023-01-13T08:06:34.031Z,12.98
2023-01-13T08:09:13.004Z,17.58
2023-01-13T08:11:41.549Z,11.65
2023-01-13T08:14:09.933Z,6.93
2023-01-13T08:16:38.879Z,13.50
2023-01-13T08:19:07.120Z,13.00
2023-01-13T08:21:38.619Z,8.05
2023-01-13T08:24:07.562Z,16.67
2023-01-13T08:26:36.122Z,10.65
2023-01-13T08:29:04.712Z,12.15
2023-01-13T08:31:33.577Z,9.77
2023-01-13T08:34:01.877Z,6.35
2023-01-13T08:36:31.727Z,5.32
2023-01-13T08:39:01.167Z,19.45
2023-01-13T08:41:49.924Z,11.38
2023-01-13T08:44:20.735Z,9.57
2023-01-13T08:47:07.167Z,12.38
2023-01-13T08:49:39.282Z,5.75
2023-01-13T08:52:18.155Z,6.78
2023-01-13T08:55:27.995Z,7.53
2023-01-13T08:58:29.191Z,7.30
2023-01-13T09:01:14.614Z,9.23
2023-01-13T09:04:02.421Z,3.38
2023-01-13T09:06:37.356Z,6.85
2023-01-13T09:09:08.401Z,1.45
2023-01-13T09:11:58.334Z,6.80
2023-01-13T09:14:33.024Z,11.35
2023-01-13T09:17:03.887Z,13.30
2023-01-13T09:19:32.976Z,13.95
2023-01-13T09:22:02.328Z,7.85
2023-01-13T09:24:31.958Z,9.70
2023-01-13T09:27:09.089Z,20.48
2023-01-13T09:29:49.057Z,11.40
2023-01-13T09:32:19.913Z,13.18
2023-01-13T09:35:01.266Z,17.55
2023-01-13T09:37:55.997Z,10.57
2023-01-13T09:40:29.986Z,14.98
2023-01-13T09:43:41.089Z,15.13
2023-01-13T09:46:41.343Z,8.27
2023-01-13T09:49:20.849Z,7.40
2023-01-13T09:52:05.226Z,19.95
2023-01-13T09:54:43.298Z,15.82
2023-01-13T09:57:16.245Z,22.30
2023-01-13T09:59:47.155Z,15.05
2023-01-13T10:02:28.037Z,20.13
2023-01-13T10:05:07.025Z,10.95
2023-01-13T10:07:38.299Z,15.40
2023-01-13T10:10:13.770Z,24.02
2023-01-13T10:13:09.155Z,13.63
2023-01-13T10:15:37.793Z,16.00
2023-01-13T10:18:08.437Z,9.88
2023-01-13T10:20:45.889Z,18.45
2023-01-13T10:23:34.554Z,10.93
2023-01-13T10:26:02.773Z,5.20
2023-01-13T10:28:31.155Z,15.80
2023-01-13T10:31:00.175Z,16.92
2023-01-13T10:33:29.340Z,16.45
2023-01-13T10:35:59.156Z,13.18
2023-01-13T10:38:50.023Z,16.15
2023-01-13T10:41:19.041Z,9.07
2023-01-13T10:44:04.079Z,14.73
2023-01-13T10:46:54.983Z,13.95
2023-01-13T10:49:32.768Z,14.35
2023-01-13T10:52:42.952Z,16.95
2023-01-13T10:55:28.802Z,21.25
2023-01-13T10:57:58.053Z,19.27
2023-01-13T11:00:32.163Z,10.00
2023-01-13T11:03:24.513Z,9.80
2023-01-13T11:06:00.297Z,18.40
2023-01-13T11:08:41.128Z,12.80
2023-01-13T11:11:26.293Z,16.70
2023-01-13T11:14:13.735Z,21.25
2023-01-13T11:16:53.039Z,18.20
2023-01-13T11:19:25.451Z,17.20
2023-01-13T11:21:57.411Z,15.57
2023-01-13T11:24:42.961Z,15.80
2023-01-13T11:29:59.319Z,10.18
2023-01-13T11:32:31.580Z,7.78
2023-01-13T11:35:05.389Z,13.38
2023-01-13T11:37:43.458Z,13.82
2023-01-13T11:40:18.149Z,9.75
2023-01-13T11:42:46.810Z,13.38
2023-01-13T11:45:22.698Z,11.45
2023-01-13T11:50:29.559Z,18.50
2023-01-13T11:53:17.036Z,18.67
2023-01-13T11:55:54.414Z,13.48
2023-01-13T11:58:22.648Z,13.52
2023-01-13T12:00:50.819Z,11.15
2023-01-13T12:03:27.695Z,13.07
2023-01-13T12:06:17.675Z,16.85
2023-01-13T12:09:00.577Z,10.65
2023-01-13T12:11:58.424Z,15.25
2023-01-13T12:14:31.611Z,13.75
2023-01-13T12:17:04.400Z,21.45
2023-01-13T12:19:34.039Z,53.72
2023-01-13T12:22:02.128Z,12.13
2023-01-13T12:24:40.950Z,17.33
2023-01-13T12:28:04.200Z,16.50
2023-01-13T12:34:41.251Z,9.25
2023-01-13T12:37:28.614Z,14.90
2023-01-13T12:39:56.903Z,8.88
2023-01-13T12:42:51.634Z,3.55
2023-01-13T12:45:22.536Z,10.52
2023-01-13T12:47:53.989Z,5.03
2023-01-13T12:50:24.024Z,11.18
2023-01-13T12:52:59.016Z,18.48
2023-01-13T12:55:27.375Z,9.63
2023-01-13T12:58:07.775Z,11.38
2023-01-13T13:00:38.101Z,14.95
2023-01-13T13:03:13.844Z,13.45
2023-01-13T13:06:00.310Z,14.45
2023-01-13T13:08:45.701Z,17.05
2023-01-13T13:11:33.836Z,21.10
2023-01-13T13:14:02.542Z,22.08
2023-01-13T13:16:30.962Z,15.57
2023-01-13T13:19:17.197Z,15.75
2023-01-13T13:22:18.736Z,14.25
2023-01-13T13:24:50.129Z,20.08
2023-01-13T13:29:57.951Z,15.23
2023-01-13T13:32:39.448Z,17.30
2023-01-13T13:35:10.484Z,22.83
2023-01-13T13:38:03.989Z,10.98
2023-01-13T13:40:59.741Z,12.33
2023-01-13T13:43:46.501Z,16.38
2023-01-13T13:46:41.737Z,14.52
2023-01-13T13:49:13.256Z,19.83
2023-01-13T13:51:50.262Z,18.00
2023-01-13T13:54:21.135Z,20.00
2023-01-13T13:56:53.010Z,12.93
2023-01-13T13:59:24.743Z,13.25
2023-01-13T14:02:01.455Z,12.80
2023-01-13T14:04:33.607Z,11.93
2023-01-13T14:07:17.977Z,15.02
2023-01-13T14:09:50.994Z,21.48
2023-01-13T14:12:22.181Z,15.32
2023-01-13T14:14:51.398Z,16.55
2023-01-13T14:17:21.905Z,16.63
2023-01-13T14:20:00.222Z,29.20
2023-01-13T14:22:30.443Z,15.15
2023-01-13T14:24:59.036Z,19.55
2023-01-13T14:27:29.185Z,16.67
2023-01-13T14:30:00.464Z,19.83
2023-01-13T14:32:38.990Z,18.70
2023-01-13T14:35:16.775Z,22.23
2023-01-13T14:38:04.259Z,27.25
2023-01-13T14:40:44.653Z,18.43
2023-01-13T14:43:14.412Z,16.60
2023-01-13T14:46:01.301Z,14.30
2023-01-13T14:48:35.926Z,17.38
2023-01-13T14:51:06.401Z,33.35
2023-01-13T14:53:39.558Z,22.33
2023-01-13T14:56:30.007Z,10.15
2023-01-13T14:59:03.004Z,21.88
2023-01-13T15:01:36.246Z,20.10
2023-01-13T15:04:16.578Z,21.60
2023-01-13T15:06:47.800Z,12.85
2023-01-13T15:09:23.754Z,11.25
2023-01-13T15:11:54.174Z,16.05
2023-01-13T15:14:27.455Z,14.05
2023-01-13T15:16:59.537Z,15.82
2023-01-13T15:19:34.899Z,12.07
2023-01-13T15:22:18.683Z,15.75
2023-01-13T15:24:57.575Z,11.57
2023-01-13T15:27:42.172Z,14.80
2023-01-13T15:30:16.617Z,9.85
2023-01-13T15:32:55.992Z,19.15
2023-01-13T15:35:25.590Z,13.88
2023-01-13T15:37:56.972Z,13.50
2023-01-13T15:40:31.977Z,9.55
2023-01-13T15:43:17.961Z,15.02
2023-01-13T15:46:06.600Z,34.65
2023-01-13T15:48:37.502Z,12.60
2023-01-13T15:51:09.824Z,24.42
2023-01-13T15:53:41.907Z,7.60
2023-01-13T15:56:20.040Z,17.95
2023-01-13T15:58:56.167Z,17.60
2023-01-13T16:01:35.202Z,9.70
2023-01-13T16:04:14.633Z,14.75
2023-01-13T16:06:51.868Z,7.63
2023-01-13T16:09:33.490Z,11.20
2023-01-13T16:12:02.574Z,14.52
2023-01-13T16:14:32.688Z,14.90
2023-01-13T16:17:01.929Z,9.30
2023-01-13T16:19:32.733Z,13.25
2023-01-13T16:22:01.197Z,9.90
2023-01-13T16:24:32.697Z,15.82
2023-01-13T16:27:01.023Z,15.73
2023-01-13T16:29:30.346Z,12.32
2023-01-13T16:32:00.913Z,9.07
2023-01-13T16:34:33.592Z,21.88
2023-01-13T16:37:02.157Z,14.63
2023-01-13T16:39:35.155Z,16.98
2023-01-13T16:42:05.773Z,27.08
2023-01-13T16:44:36.114Z,19.27
2023-01-13T16:47:06.930Z,14.30
2023-01-13T16:49:36.087Z,17.75
2023-01-13T16:52:04.391Z,15.25
2023-01-13T16:54:33.915Z,17.60
2023-01-13T16:57:02.514Z,22.13
2023-01-13T16:59:34.556Z,12.98
2023-01-13T17:02:05.670Z,19.00
2023-01-13T17:04:34.918Z,17.35
2023-01-13T17:07:06.070Z,9.57
2023-01-13T17:09:37.214Z,9.02
2023-01-13T17:12:05.977Z,20.38
2023-01-13T17:14:35.025Z,11.05
2023-01-13T17:17:03.641Z,19.65
2023-01-13T17:19:32.432Z,13.68
2023-01-13T17:22:14.206Z,11.60
2023-01-13T17:24:54.643Z,19.10
2023-01-13T17:27:42.751Z,14.05
2023-01-13T17:30:19.428Z,17.58
2023-01-13T17:33:07.121Z,7.25
2023-01-13T17:35:39.807Z,17.60
2023-01-13T17:38:11.796Z,19.45
2023-01-13T17:40:50.010Z,12.88
2023-01-13T17:43:20.825Z,14.38
2023-01-13T17:45:58.966Z,15.75
2023-01-13T17:48:32.483Z,17.45
2023-01-13T17:51:16.361Z,19.42
2023-01-13T17:53:45.647Z,11.43
2023-01-13T17:56:15.292Z,20.05
2023-01-13T17:58:46.787Z,16.60
2023-01-13T18:01:19.793Z,12.48
2023-01-13T18:04:04.831Z,24.13
2023-01-13T18:06:36.238Z,10.50
2023-01-13T18:09:13.151Z,13.95
2023-01-13T18:11:42.673Z,18.83
2023-01-13T18:14:12.232Z,13.70
2023-01-13T18:16:43.865Z,17.50
2023-01-13T18:19:30.054Z,22.98
2023-01-13T18:22:18.769Z,15.95
2023-01-13T18:25:18.235Z,8.75
2023-01-13T18:27:47.915Z,13.88
2023-01-13T18:30:18.306Z,12.80
2023-01-13T18:33:06.056Z,15.23
2023-01-13T18:35:39.064Z,12.85
2023-01-13T18:38:12.477Z,13.32
2023-01-13T18:40:45.960Z,10.23
2023-01-13T18:43:13.644Z,9.63
2023-01-13T18:45:44.815Z,15.68
2023-01-13T18:48:13.971Z,12.90
2023-01-13T18:50:47.395Z,6.80
2023-01-13T18:53:27.774Z,9.93
2023-01-13T18:55:56.634Z,18.50
2023-01-13T18:58:25.101Z,9.30
2023-01-13T19:01:01.219Z,10.48
2023-01-13T19:03:38.466Z,13.82
2023-01-13T19:06:12.459Z,12.32
2023-01-13T19:08:44.323Z,9.52
2023-01-13T19:11:15.584Z,15.25
2023-01-13T19:13:44.312Z,10.50
2023-01-13T19:16:12.858Z,13.13
2023-01-13T19:18:43.741Z,19.42
2023-01-13T19:21:12.428Z,14.30
2023-01-13T19:23:41.074Z,13.95
2023-01-13T19:26:10.847Z,11.93
2023-01-13T19:28:40.172Z,11.85
2023-01-13T19:31:21.373Z,14.02
2023-01-13T19:33:59.476Z,9.43
2023-01-13T19:36:33.252Z,12.10
2023-01-13T19:39:12.033Z,14.30
2023-01-13T19:42:02.617Z,12.20
2023-01-13T19:44:57.050Z,12.32
2023-01-13T19:47:26.303Z,14.65
2023-01-13T19:49:55.136Z,13.55
2023-01-13T19:52:23.904Z,15.52
2023-01-13T19:54:52.896Z,15.10
2023-01-13T19:57:22.415Z,17.88
2023-01-13T19:59:51.376Z,13.70
2023-01-13T20:02:31.582Z,12.13
2023-01-13T20:05:08.876Z,8.15
2023-01-13T20:07:52.034Z,14.05
2023-01-13T20:10:23.359Z,18.08
2023-01-13T20:12:54.457Z,14.60
2023-01-13T20:15:24.276Z,16.63
2023-01-13T20:17:55.514Z,11.68
2023-01-13T20:20:23.788Z,18.73
2023-01-13T20:22:53.573Z,17.42
2023-01-13T20:25:28.704Z,13.93
2023-01-13T20:27:57.661Z,14.48
2023-01-13T20:30:26.299Z,16.88
2023-01-13T20:33:11.009Z,13.98
2023-01-13T20:35:42.358Z,14.10
2023-01-13T20:38:13.190Z,21.40
2023-01-13T20:40:44.616Z,18.08
2023-01-13T20:43:14.784Z,14.52
2023-01-13T20:45:44.028Z,14.05
2023-01-13T20:48:15.145Z,12.77
2023-01-13T20:50:43.651Z,23.63
2023-01-13T20:53:12.056Z,14.05
2023-01-13T20:55:40.676Z,19.13
2023-01-13T20:58:09.947Z,13.45
2023-01-13T21:00:38.244Z,16.52
2023-01-13T21:03:24.264Z,20.17
2023-01-13T21:05:52.685Z,13.60
2023-01-13T21:08:21.657Z,24.02
2023-01-13T21:10:50.232Z,26.58
2023-01-13T21:13:36.310Z,19.90
2023-01-13T21:16:10.306Z,18.00
2023-01-13T21:18:56.637Z,22.05
2023-01-13T21:21:31.379Z,22.98
2023-01-13T21:23:59.835Z,27.17
2023-01-13T21:26:28.528Z,25.38
2023-01-13T21:29:06.683Z,22.83
2023-01-13T21:31:40.145Z,15.27
2023-01-13T21:34:11.535Z,21.70
2023-01-13T21:36:43.841Z,26.73
2023-01-13T21:39:14.105Z,23.23
2023-01-13T21:42:00.983Z,21.98
2023-01-13T21:44:48.199Z,14.18
2023-01-13T21:47:35.172Z,19.02
2023-01-13T21:50:08.011Z,30.65
2023-01-13T21:52:42.729Z,22.00
2023-01-13T21:55:23.651Z,18.77
2023-01-13T21:58:00.763Z,15.18
2023-01-13T22:00:32.989Z,18.48
2023-01-13T22:03:11.247Z,20.55
2023-01-13T22:05:39.890Z,15.82
2023-01-13T22:08:09.241Z,14.52
2023-01-13T22:10:57.244Z,21.83
2023-01-13T22:13:48.312Z,21.77
2023-01-13T22:16:24.074Z,16.73
2023-01-13T22:18:53.379Z,24.23
2023-01-13T22:21:25.369Z,18.55
2023-01-13T22:23:59.296Z,22.98
2023-01-13T22:26:35.235Z,28.65
2023-01-13T22:29:14.128Z,19.35
2023-01-13T22:31:52.587Z,16.27
2023-01-13T22:34:31.728Z,21.70
2023-01-13T22:37:07.456Z,36.30
2023-01-13T22:39:45.504Z,18.92
2023-01-13T22:42:14.977Z,28.23
2023-01-13T22:44:44.159Z,14.43
2023-01-13T22:47:12.478Z,22.77
2023-01-13T22:49:47.727Z,13.67
2023-01-13T22:52:17.634Z,26.00
2023-01-13T22:54:51.152Z,16.90
2023-01-13T22:57:19.693Z,29.08
2023-01-13T22:59:48.321Z,32.38
2023-01-13T23:02:17.135Z,67.07
2023-01-13T23:04:48.354Z,31.30
2023-01-13T23:07:33.371Z,21.35
2023-01-13T23:10:02.504Z,30.80
2023-01-13T23:12:43.153Z,28.98
2023-01-13T23:15:14.510Z,27.55
2023-01-13T23:17:51.624Z,28.08
2023-01-13T23:20:20.277Z,29.95
2023-01-13T23:22:52.255Z,32.53
2023-01-13T23:25:22.750Z,23.60
2023-01-13T23:28:04.326Z,26.42
2023-01-13T23:30:46.730Z,26.60
2023-01-13T23:33:37.692Z,23.65
2023-01-13T23:36:08.000Z,33.50
2023-01-13T23:38:39.417Z,44.05
2023-01-13T23:41:14.737Z,20.30
2023-01-13T23:44:01.327Z,22.63
2023-01-13T23:46:33.939Z,29.52
2023-01-13T23:49:02.877Z,15.15
2023-01-13T23:51:31.885Z,24.35
2023-01-13T23:54:00.573Z,26.08
2023-01-13T23:56:32.375Z,19.80
2023-01-13T23:59:01.604Z,26.42
